createdAt,value
2022-07-25T00:00:06.440Z,5.72
2022-07-25T00:02:35.005Z,5.60
2022-07-25T00:05:03.492Z,5.35
2022-07-25T00:07:31.912Z,5.35
2022-07-25T00:10:00.402Z,5.30
2022-07-25T00:12:30.179Z,5.53
2022-07-25T00:14:58.644Z,4.93
2022-07-25T00:17:27.064Z,5.22
2022-07-25T00:19:55.513Z,5.13
2022-07-25T00:22:23.985Z,4.90
2022-07-25T00:24:52.477Z,5.40
2022-07-25T00:27:20.931Z,5.30
2022-07-25T00:29:50.777Z,4.95
2022-07-25T00:32:19.345Z,5.32
2022-07-25T00:34:47.822Z,5.55
2022-07-25T00:37:16.315Z,5.68
2022-07-25T00:39:44.759Z,6.05
2022-07-25T00:42:13.187Z,5.80
2022-07-25T00:44:41.508Z,6.25
2022-07-25T00:47:11.296Z,5.93
2022-07-25T00:49:39.751Z,5.22
2022-07-25T00:52:08.462Z,5.10
2022-07-25T00:54:36.862Z,4.85
2022-07-25T00:57:05.564Z,5.30
2022-07-25T00:59:34.291Z,5.60
2022-07-25T01:02:03.803Z,5.32
2022-07-25T01:04:34.179Z,4.90
2022-07-25T01:07:02.690Z,5.10
2022-07-25T01:09:31.448Z,5.40
2022-07-25T01:11:59.915Z,4.60
2022-07-25T01:14:28.286Z,4.65
2022-07-25T01:16:56.722Z,4.47
2022-07-25T01:19:25.134Z,4.88
2022-07-25T01:21:56.251Z,3.70
2022-07-25T01:24:24.734Z,4.32
2022-07-25T01:26:53.345Z,4.32
2022-07-25T01:29:21.750Z,3.95
2022-07-25T01:31:50.136Z,4.07
2022-07-25T01:34:18.552Z,4.32
2022-07-25T01:36:46.969Z,3.80
2022-07-25T01:39:16.690Z,4.13
2022-07-25T01:41:45.051Z,3.97
2022-07-25T01:44:13.408Z,4.20
2022-07-25T01:46:41.816Z,3.85
2022-07-25T01:49:10.444Z,4.00
2022-07-25T01:51:38.913Z,3.90
2022-07-25T01:54:10.220Z,4.13
2022-07-25T01:56:46.856Z,3.85
2022-07-25T01:59:16.817Z,3.85
2022-07-25T02:01:45.570Z,3.70
2022-07-25T02:04:14.162Z,3.42
2022-07-25T02:06:42.588Z,3.22
2022-07-25T02:09:11.176Z,4.15
2022-07-25T02:11:41.165Z,3.60
2022-07-25T02:14:09.805Z,3.83
2022-07-25T02:16:38.637Z,3.55
2022-07-25T02:19:07.302Z,3.30
2022-07-25T02:21:35.766Z,3.50
2022-07-25T02:24:04.711Z,3.60
2022-07-25T02:26:33.342Z,3.42
2022-07-25T02:29:03.199Z,3.15
2022-07-25T02:31:31.578Z,3.20
2022-07-25T02:34:00.061Z,3.15
2022-07-25T02:36:28.537Z,3.53
2022-07-25T02:38:56.913Z,3.15
2022-07-25T02:41:25.262Z,3.38
2022-07-25T02:43:53.768Z,2.70
2022-07-25T02:46:23.785Z,2.90
2022-07-25T02:48:52.337Z,3.00
2022-07-25T02:51:20.821Z,2.67
2022-07-25T02:53:58.247Z,2.88
2022-07-25T02:56:30.054Z,2.83
2022-07-25T02:58:59.024Z,3.28
2022-07-25T03:01:28.910Z,2.30
2022-07-25T03:03:57.500Z,2.90
2022-07-25T03:06:25.951Z,3.03
2022-07-25T03:08:54.356Z,2.72
2022-07-25T03:11:22.887Z,2.60
2022-07-25T03:13:51.386Z,2.50
2022-07-25T03:16:19.820Z,3.40
2022-07-25T03:18:49.635Z,2.42
2022-07-25T03:21:17.993Z,2.42
2022-07-25T03:23:51.968Z,2.33
2022-07-25T03:26:21.110Z,2.40
2022-07-25T03:28:49.584Z,2.30
2022-07-25T03:31:17.934Z,2.83
2022-07-25T03:33:48.054Z,2.90
2022-07-25T03:36:16.520Z,2.20
2022-07-25T03:38:44.848Z,2.20
2022-07-25T03:41:13.934Z,2.20
2022-07-25T03:43:42.390Z,2.33
2022-07-25T03:46:10.917Z,2.05
2022-07-25T03:48:39.584Z,2.15
2022-07-25T03:51:09.555Z,2.08
2022-07-25T03:53:58.272Z,2.05
2022-07-25T03:56:26.802Z,2.00
2022-07-25T03:58:55.456Z,1.90
2022-07-25T04:01:23.963Z,2.13
2022-07-25T04:03:54.967Z,2.40
2022-07-25T04:06:24.783Z,2.03
2022-07-25T04:08:53.557Z,2.40
2022-07-25T04:11:21.929Z,2.10
2022-07-25T04:13:50.797Z,2.17
2022-07-25T04:16:22.192Z,2.30
2022-07-25T04:18:51.694Z,2.30
2022-07-25T04:21:20.509Z,2.03
2022-07-25T04:23:50.737Z,2.17
2022-07-25T04:26:19.587Z,1.95
2022-07-25T04:28:48.050Z,2.10
2022-07-25T04:31:16.622Z,1.70
2022-07-25T04:33:45.153Z,1.73
2022-07-25T04:36:13.543Z,2.08
2022-07-25T04:38:41.926Z,2.08
2022-07-25T04:41:11.890Z,1.88
2022-07-25T04:43:43.587Z,1.95
2022-07-25T04:46:18.605Z,1.98
2022-07-25T04:48:47.216Z,1.88
2022-07-25T04:51:17.043Z,1.88
2022-07-25T04:53:45.492Z,1.88
2022-07-25T04:56:15.250Z,2.40
2022-07-25T04:58:43.860Z,1.58
2022-07-25T05:01:12.329Z,1.85
2022-07-25T05:03:40.947Z,2.00
2022-07-25T05:06:19.004Z,1.90
2022-07-25T05:08:47.370Z,1.50
2022-07-25T05:11:17.116Z,1.88
2022-07-25T05:13:45.515Z,2.08
2022-07-25T05:16:13.990Z,1.95
2022-07-25T05:18:42.482Z,2.00
2022-07-25T05:21:12.374Z,1.77
2022-07-25T05:23:40.862Z,1.98
2022-07-25T05:26:09.450Z,2.10
2022-07-25T05:28:39.498Z,1.67
2022-07-25T05:31:08.042Z,1.77
2022-07-25T05:33:36.518Z,1.60
2022-07-25T05:36:05.255Z,1.63
2022-07-25T05:38:33.643Z,1.70
2022-07-25T05:41:02.035Z,1.65
2022-07-25T05:43:30.468Z,1.40
2022-07-25T05:46:03.372Z,1.60
2022-07-25T05:48:32.093Z,1.83
2022-07-25T05:51:00.525Z,1.55
2022-07-25T05:53:28.992Z,2.05
2022-07-25T05:55:57.401Z,1.60
2022-07-25T05:58:29.906Z,1.70
2022-07-25T06:00:58.903Z,1.58
2022-07-25T06:03:28.776Z,1.60
2022-07-25T06:05:57.548Z,1.50
2022-07-25T06:08:28.600Z,1.90
2022-07-25T06:10:58.231Z,1.80
2022-07-25T06:13:26.697Z,1.88
2022-07-25T06:15:56.635Z,1.52
2022-07-25T06:18:25.670Z,1.75
2022-07-25T06:20:55.458Z,1.60
2022-07-25T06:23:23.838Z,1.50
2022-07-25T06:25:56.337Z,1.35
2022-07-25T06:28:24.687Z,1.80
2022-07-25T06:30:53.157Z,1.40
2022-07-25T06:33:21.651Z,1.80
2022-07-25T06:35:50.064Z,2.00
2022-07-25T06:38:20.019Z,2.08
2022-07-25T06:40:48.455Z,1.50
2022-07-25T06:43:16.826Z,1.63
2022-07-25T06:45:47.541Z,1.83
2022-07-25T06:48:16.212Z,1.80
2022-07-25T06:50:45.934Z,1.63
2022-07-25T06:53:14.545Z,1.70
2022-07-25T06:55:44.330Z,1.67
2022-07-25T06:58:12.711Z,1.70
2022-07-25T07:00:41.146Z,1.98
2022-07-25T07:03:09.622Z,1.80
2022-07-25T07:05:38.317Z,1.88
2022-07-25T07:08:07.043Z,1.63
2022-07-25T07:10:35.666Z,1.80
2022-07-25T07:13:07.540Z,1.60
2022-07-25T07:15:36.377Z,1.75
2022-07-25T07:18:06.679Z,1.90
2022-07-25T07:20:35.133Z,2.10
2022-07-25T07:23:03.575Z,1.80
2022-07-25T07:25:32.405Z,1.60
2022-07-25T07:28:01.115Z,2.00
2022-07-25T07:30:58.561Z,1.73
2022-07-25T07:33:19.431Z,1.90
2022-07-25T07:35:47.862Z,1.90
2022-07-25T07:38:16.466Z,1.95
2022-07-25T07:40:44.843Z,1.73
2022-07-25T07:43:13.253Z,2.10
2022-07-25T07:45:43.863Z,1.88
2022-07-25T07:48:12.416Z,1.98
2022-07-25T07:50:41.360Z,1.73
2022-07-25T07:53:09.758Z,1.70
2022-07-25T07:55:46.570Z,1.88
2022-07-25T07:58:16.617Z,1.80
2022-07-25T08:00:47.834Z,2.00
2022-07-25T08:03:20.517Z,1.60
2022-07-25T08:05:51.653Z,2.00
2022-07-25T08:08:20.340Z,1.92
2022-07-25T08:10:51.899Z,2.17
2022-07-25T08:13:23.609Z,1.98
2022-07-25T08:15:54.541Z,2.47
2022-07-25T08:18:23.303Z,2.10
2022-07-25T08:20:52.422Z,2.20
2022-07-25T08:23:21.263Z,1.95
2022-07-25T08:25:49.922Z,2.03
2022-07-25T08:28:18.350Z,2.17
2022-07-25T08:30:46.905Z,2.42
2022-07-25T08:33:17.025Z,2.13
2022-07-25T08:35:48.818Z,2.53
2022-07-25T08:38:18.375Z,2.10
2022-07-25T08:40:46.915Z,2.35
2022-07-25T08:43:17.169Z,2.58
2022-07-25T08:45:47.374Z,2.70
2022-07-25T08:48:19.214Z,2.20
2022-07-25T08:50:48.646Z,2.40
2022-07-25T08:53:35.255Z,2.40
2022-07-25T08:56:11.605Z,2.30
2022-07-25T08:58:44.079Z,2.78
2022-07-25T09:01:13.671Z,2.70
2022-07-25T09:03:43.913Z,2.83
2022-07-25T09:06:17.282Z,2.80
2022-07-25T09:08:53.593Z,2.72
2022-07-25T09:11:32.880Z,2.53
2022-07-25T09:14:08.206Z,2.95
2022-07-25T09:16:40.323Z,2.63
2022-07-25T09:19:15.762Z,3.00
2022-07-25T09:21:46.332Z,3.08
2022-07-25T09:24:17.439Z,2.80
2022-07-25T09:26:50.859Z,2.50
2022-07-25T09:29:21.504Z,2.63
2022-07-25T09:31:50.046Z,2.85
2022-07-25T09:34:33.849Z,3.00
2022-07-25T09:37:02.742Z,2.58
2022-07-25T09:39:45.499Z,2.55
2022-07-25T09:42:20.476Z,2.75
2022-07-25T09:45:04.279Z,2.53
2022-07-25T09:47:33.850Z,2.70
2022-07-25T09:50:04.478Z,2.53
2022-07-25T09:52:33.733Z,2.38
2022-07-25T09:55:04.925Z,2.60
2022-07-25T09:57:33.314Z,2.95
2022-07-25T10:00:02.017Z,2.65
2022-07-25T10:02:40.607Z,2.75
2022-07-25T10:05:17.997Z,2.95
2022-07-25T10:07:49.042Z,2.75
2022-07-25T10:10:28.846Z,3.10
2022-07-25T10:13:06.382Z,2.70
2022-07-25T10:15:46.676Z,2.80
2022-07-25T10:18:16.435Z,2.67
2022-07-25T10:20:47.874Z,2.65
2022-07-25T10:23:25.072Z,2.78
2022-07-25T10:26:04.985Z,2.78
2022-07-25T10:28:39.088Z,2.78
2022-07-25T10:31:22.461Z,2.55
2022-07-25T10:33:56.348Z,3.20
2022-07-25T10:36:28.737Z,2.47
2022-07-25T10:38:59.360Z,2.75
2022-07-25T10:41:28.787Z,3.03
2022-07-25T10:44:02.290Z,2.70
2022-07-25T10:46:32.461Z,2.35
2022-07-25T10:49:07.537Z,2.92
2022-07-25T10:51:42.105Z,2.90
2022-07-25T10:54:15.418Z,2.92
2022-07-25T10:56:54.702Z,2.38
2022-07-25T10:59:30.982Z,2.65
2022-07-25T11:01:59.585Z,3.25
2022-07-25T11:04:29.634Z,2.80
2022-07-25T11:07:08.047Z,2.83
2022-07-25T11:09:36.521Z,2.88
2022-07-25T11:12:05.538Z,2.10
2022-07-25T11:14:36.348Z,2.65
2022-07-25T11:17:19.720Z,3.08
2022-07-25T11:19:56.067Z,2.92
2022-07-25T11:22:25.799Z,3.17
2022-07-25T11:24:54.435Z,2.88
2022-07-25T11:27:24.457Z,2.88
2022-07-25T11:29:52.921Z,2.83
2022-07-25T11:32:21.914Z,2.85
2022-07-25T11:34:51.825Z,2.85
2022-07-25T11:37:21.037Z,3.20
2022-07-25T11:39:51.515Z,3.40
2022-07-25T11:42:21.904Z,3.00
2022-07-25T11:44:52.631Z,3.10
2022-07-25T11:47:27.080Z,2.65
2022-07-25T11:49:56.908Z,2.70
2022-07-25T11:52:26.259Z,3.08
2022-07-25T11:54:57.361Z,3.17
2022-07-25T11:57:26.702Z,2.58
2022-07-25T11:59:56.053Z,2.85
2022-07-25T12:02:25.999Z,2.53
2022-07-25T12:04:59.131Z,2.58
2022-07-25T12:07:38.941Z,2.88
2022-07-25T12:10:10.950Z,2.80
2022-07-25T12:12:50.463Z,2.88
2022-07-25T12:15:20.890Z,2.75
2022-07-25T12:17:50.202Z,2.88
2022-07-25T12:20:20.221Z,2.90
2022-07-25T12:22:49.530Z,3.05
2022-07-25T12:25:19.540Z,3.10
2022-07-25T12:27:48.271Z,2.70
2022-07-25T12:30:16.743Z,2.78
2022-07-25T12:32:45.848Z,2.75
2022-07-25T12:35:15.731Z,2.70
2022-07-25T12:37:44.781Z,2.88
2022-07-25T12:40:14.915Z,2.58
2022-07-25T12:42:45.262Z,2.70
2022-07-25T12:45:14.747Z,2.72
2022-07-25T12:47:44.280Z,2.92
2022-07-25T12:50:13.399Z,2.50
2022-07-25T12:52:42.393Z,2.70
2022-07-25T12:55:13.282Z,2.92
2022-07-25T12:57:42.029Z,2.30
2022-07-25T13:00:14.635Z,2.42
2022-07-25T13:02:43.385Z,2.67
2022-07-25T13:05:12.321Z,3.05
2022-07-25T13:07:40.713Z,2.65
2022-07-25T13:10:10.373Z,2.90
2022-07-25T13:12:39.140Z,3.03
2022-07-25T13:15:08.530Z,2.88
2022-07-25T13:17:40.303Z,2.63
2022-07-25T13:20:10.587Z,2.80
2022-07-25T13:22:39.282Z,2.92
2022-07-25T13:25:08.460Z,2.83
2022-07-25T13:27:37.787Z,2.60
2022-07-25T13:30:08.363Z,2.47
2022-07-25T13:32:38.273Z,2.90
2022-07-25T13:35:07.467Z,2.90
2022-07-25T13:37:35.996Z,2.65
2022-07-25T13:40:04.856Z,2.80
2022-07-25T13:42:33.254Z,2.90
2022-07-25T13:45:01.733Z,2.67
2022-07-25T13:47:30.630Z,2.95
2022-07-25T13:50:00.458Z,2.92
2022-07-25T13:52:29.199Z,2.90
2022-07-25T13:54:57.631Z,2.97
2022-07-25T13:57:26.115Z,2.67
2022-07-25T13:59:54.595Z,2.85
2022-07-25T14:02:23.017Z,2.83
2022-07-25T14:04:51.464Z,3.00
2022-07-25T14:07:21.283Z,3.17
2022-07-25T14:09:49.767Z,3.17
2022-07-25T14:12:18.176Z,2.92
2022-07-25T14:14:46.593Z,3.33
2022-07-25T14:17:15.071Z,3.78
2022-07-25T14:19:43.561Z,3.75
2022-07-25T14:22:12.042Z,3.92
2022-07-25T14:24:41.845Z,5.50
2022-07-25T14:27:10.663Z,4.45
2022-07-25T14:29:39.342Z,5.10
2022-07-25T14:32:08.355Z,5.00
2022-07-25T14:34:37.850Z,6.13
2022-07-25T14:37:07.729Z,6.57
2022-07-25T14:39:37.340Z,5.45
2022-07-25T14:42:09.298Z,5.15
2022-07-25T14:44:37.751Z,4.22
2022-07-25T14:47:12.102Z,5.22
2022-07-25T14:49:41.933Z,4.35
2022-07-25T14:52:11.388Z,3.63
2022-07-25T14:54:40.485Z,3.75
2022-07-25T14:57:10.847Z,4.63
2022-07-25T14:59:39.438Z,4.25
2022-07-25T15:02:09.872Z,4.18
2022-07-25T15:04:38.920Z,3.63
2022-07-25T15:07:08.059Z,3.45
2022-07-25T15:09:36.725Z,2.72
2022-07-25T15:12:05.639Z,2.72
2022-07-25T15:14:35.751Z,2.60
2022-07-25T15:17:04.195Z,2.30
2022-07-25T15:19:32.898Z,2.40
2022-07-25T15:22:01.533Z,2.58
2022-07-25T15:24:29.866Z,2.60
2022-07-25T15:26:58.550Z,2.53
2022-07-25T15:29:28.194Z,2.55
2022-07-25T15:31:58.030Z,2.60
2022-07-25T15:34:26.699Z,2.17
2022-07-25T15:36:56.382Z,1.70
2022-07-25T15:39:24.889Z,2.10
2022-07-25T15:41:53.256Z,2.10
2022-07-25T15:44:21.670Z,2.47
2022-07-25T15:46:50.174Z,2.20
2022-07-25T15:49:19.975Z,3.00
2022-07-25T15:51:48.487Z,2.20
2022-07-25T15:54:16.778Z,2.92
2022-07-25T15:56:45.211Z,2.75
2022-07-25T15:59:14.236Z,2.90
2022-07-25T16:01:43.449Z,3.55
2022-07-25T16:04:12.176Z,7.15
2022-07-25T16:06:42.136Z,3.47
2022-07-25T16:09:12.385Z,3.20
2022-07-25T16:11:42.563Z,2.53
2022-07-25T16:14:11.345Z,2.60
2022-07-25T16:16:39.813Z,2.22
2022-07-25T16:19:09.390Z,2.78
2022-07-25T16:21:42.959Z,2.60
2022-07-25T16:24:12.833Z,2.70
2022-07-25T16:26:43.099Z,3.20
2022-07-25T16:29:12.024Z,2.67
2022-07-25T16:31:41.386Z,2.97
2022-07-25T16:34:10.001Z,2.38
2022-07-25T16:36:38.867Z,2.38
2022-07-25T16:39:07.983Z,2.58
2022-07-25T16:41:38.039Z,3.08
2022-07-25T16:44:08.686Z,3.13
2022-07-25T16:46:37.698Z,2.90
2022-07-25T16:49:06.782Z,3.17
2022-07-25T16:51:37.329Z,2.78
2022-07-25T16:54:06.038Z,2.65
2022-07-25T16:56:35.659Z,2.72
2022-07-25T16:59:05.987Z,2.83
2022-07-25T17:01:35.114Z,2.90
2022-07-25T17:04:04.278Z,3.03
2022-07-25T17:06:32.759Z,3.40
2022-07-25T17:09:01.824Z,3.17
2022-07-25T17:11:30.406Z,3.15
2022-07-25T17:14:00.539Z,3.22
2022-07-25T17:16:30.516Z,3.80
2022-07-25T17:19:03.638Z,3.47
2022-07-25T17:21:32.295Z,3.80
2022-07-25T17:24:00.935Z,3.08
2022-07-25T17:26:29.455Z,3.70
2022-07-25T17:28:59.812Z,3.72
2022-07-25T17:31:29.774Z,3.92
2022-07-25T17:33:58.286Z,3.70
2022-07-25T17:36:26.859Z,3.92
2022-07-25T17:38:55.723Z,4.43
2022-07-25T17:41:24.189Z,3.08
2022-07-25T17:43:52.846Z,3.20
2022-07-25T17:46:21.469Z,3.00
2022-07-25T17:48:53.645Z,2.85
2022-07-25T17:51:22.158Z,2.55
2022-07-25T17:53:50.765Z,2.85
2022-07-25T17:56:19.394Z,2.20
2022-07-25T17:58:47.842Z,2.60
2022-07-25T18:01:16.319Z,2.30
2022-07-25T18:03:47.441Z,2.45
2022-07-25T18:06:17.384Z,2.55
2022-07-25T18:08:45.831Z,2.20
2022-07-25T18:11:14.231Z,2.30
2022-07-25T18:13:43.133Z,2.25
2022-07-25T18:16:11.776Z,2.60
2022-07-25T18:18:40.777Z,2.90
2022-07-25T18:21:09.231Z,2.58
2022-07-25T18:23:39.073Z,2.25
2022-07-25T18:26:07.781Z,2.88
2022-07-25T18:28:36.501Z,2.47
2022-07-25T18:31:05.625Z,2.58
2022-07-25T18:33:34.148Z,2.75
2022-07-25T18:36:07.255Z,2.50
2022-07-25T18:38:37.912Z,2.15
2022-07-25T18:41:28.119Z,2.38
2022-07-25T18:43:55.069Z,2.38
2022-07-25T18:46:24.034Z,2.70
2022-07-25T18:48:52.901Z,2.50
2022-07-25T18:51:22.699Z,2.60
2022-07-25T18:53:52.538Z,2.15
2022-07-25T18:56:20.927Z,2.60
2022-07-25T18:58:49.355Z,2.70
2022-07-25T19:01:17.879Z,2.88
2022-07-25T19:03:46.404Z,2.80
2022-07-25T19:06:15.289Z,2.55
2022-07-25T19:08:43.838Z,2.40
2022-07-25T19:11:13.604Z,2.72
2022-07-25T19:13:50.891Z,2.53
2022-07-25T19:16:20.705Z,2.70
2022-07-25T19:18:49.718Z,2.95
2022-07-25T19:21:18.201Z,2.40
2022-07-25T19:23:50.850Z,2.90
2022-07-25T19:26:22.312Z,2.20
2022-07-25T19:28:51.287Z,2.30
2022-07-25T19:31:19.913Z,2.50
2022-07-25T19:33:49.292Z,2.60
2022-07-25T19:36:17.731Z,2.40
2022-07-25T19:38:46.192Z,2.65
2022-07-25T19:41:14.701Z,2.85
2022-07-25T19:43:44.574Z,2.97
2022-07-25T19:46:13.296Z,2.50
2022-07-25T19:48:42.074Z,2.85
2022-07-25T19:51:10.949Z,2.53
2022-07-25T19:53:39.683Z,2.20
2022-07-25T19:56:09.204Z,2.58
2022-07-25T19:58:41.079Z,2.35
2022-07-25T20:01:13.372Z,2.28
2022-07-25T20:03:42.526Z,2.45
2022-07-25T20:06:11.310Z,2.67
2022-07-25T20:08:40.315Z,2.53
2022-07-25T20:11:08.869Z,2.25
2022-07-25T20:13:37.318Z,2.88
2022-07-25T20:16:06.337Z,2.47
2022-07-25T20:18:36.178Z,2.22
2022-07-25T20:21:04.716Z,2.90
2022-07-25T20:23:33.271Z,2.00
2022-07-25T20:26:02.431Z,2.88
2022-07-25T20:28:31.032Z,2.40
2022-07-25T20:31:01.627Z,2.97
2022-07-25T20:33:30.617Z,2.25
2022-07-25T20:36:00.769Z,2.05
2022-07-25T20:38:31.289Z,2.97
2022-07-25T20:41:00.306Z,3.00
2022-07-25T20:43:29.787Z,2.58
2022-07-25T20:45:59.017Z,3.10
2022-07-25T20:48:27.636Z,2.70
2022-07-25T20:50:56.411Z,2.85
2022-07-25T20:53:26.698Z,2.55
2022-07-25T20:55:55.280Z,3.13
2022-07-25T20:58:23.811Z,2.78
2022-07-25T21:00:52.260Z,2.63
2022-07-25T21:03:20.773Z,3.05
2022-07-25T21:05:49.387Z,2.58
2022-07-25T21:08:17.836Z,2.70
2022-07-25T21:10:47.648Z,2.50
2022-07-25T21:13:16.939Z,2.72
2022-07-25T21:15:47.097Z,2.58
2022-07-25T21:18:15.570Z,2.80
2022-07-25T21:20:45.875Z,2.47
2022-07-25T21:23:15.272Z,2.70
2022-07-25T21:25:43.895Z,2.60
2022-07-25T21:28:13.819Z,2.97
2022-07-25T21:30:43.670Z,2.78
2022-07-25T21:33:14.775Z,2.42
2022-07-25T21:35:49.183Z,2.78
2022-07-25T21:38:26.653Z,2.53
2022-07-25T21:40:57.034Z,3.03
2022-07-25T21:43:26.795Z,3.17
2022-07-25T21:45:55.431Z,2.60
2022-07-25T21:48:44.852Z,2.97
2022-07-25T21:51:18.866Z,2.95
2022-07-25T21:53:51.751Z,2.83
2022-07-25T21:56:20.768Z,3.28
2022-07-25T21:58:50.741Z,2.70
2022-07-25T22:01:21.033Z,3.17
2022-07-25T22:03:49.639Z,2.80
2022-07-25T22:06:19.281Z,3.35
2022-07-25T22:08:47.866Z,2.95
2022-07-25T22:11:38.420Z,3.00
2022-07-25T22:14:08.818Z,2.72
2022-07-25T22:16:38.472Z,3.55
2022-07-25T22:19:07.203Z,2.80
2022-07-25T22:21:35.849Z,2.88
2022-07-25T22:24:04.467Z,3.10
2022-07-25T22:26:32.929Z,3.50
2022-07-25T22:29:01.406Z,2.72
2022-07-25T22:31:31.191Z,2.42
2022-07-25T22:33:59.748Z,2.85
2022-07-25T22:36:28.199Z,3.35
2022-07-25T22:38:56.672Z,2.97
2022-07-25T22:41:25.159Z,2.88
2022-07-25T22:43:56.691Z,2.83
2022-07-25T22:46:28.130Z,3.38
2022-07-25T22:48:58.746Z,3.33
2022-07-25T22:51:27.453Z,2.75
2022-07-25T22:53:55.890Z,3.38
2022-07-25T22:56:24.513Z,2.95
2022-07-25T22:58:53.165Z,2.88
2022-07-25T23:01:22.387Z,3.03
2022-07-25T23:03:51.322Z,3.42
2022-07-25T23:06:21.996Z,2.80
2022-07-25T23:08:50.916Z,3.03
2022-07-25T23:11:19.921Z,3.30
2022-07-25T23:13:48.408Z,2.85
2022-07-25T23:16:16.932Z,3.08
2022-07-25T23:18:45.549Z,2.67
2022-07-25T23:21:14.007Z,2.70
2022-07-25T23:23:43.844Z,2.22
2022-07-25T23:26:12.425Z,2.10
2022-07-25T23:28:40.934Z,2.42
2022-07-25T23:31:09.486Z,2.30
2022-07-25T23:33:38.003Z,1.95
2022-07-25T23:36:07.001Z,2.10
2022-07-25T23:38:35.457Z,1.85
2022-07-25T23:41:05.364Z,1.55
2022-07-25T23:43:54.986Z,1.77
2022-07-25T23:46:25.805Z,2.03
2022-07-25T23:48:56.172Z,1.80
2022-07-25T23:51:24.694Z,1.95
2022-07-25T23:53:53.202Z,2.45
2022-07-25T23:56:22.995Z,1.67
2022-07-25T23:58:51.690Z,1.58
